Fandon, Illinois
Current Conditions -  °F | °C
As of 9:35 AM on Thursday 23 Oct 2014 (Local Time) from KMQB Reporting Station
Clear Clear  
Wind Chill: 44°   Ceiling: Unl
Heat Index: 48°   Visibility: 10mi
Dew Point: 44°   Wind: 9mph
Humidity: 85%   Direction: 160°SSE
Pressure: 30.18"   Gusts: NA
Location:  40.3545°N, 90.7535°W
Report Text: KMQB 231435Z AUTO 16008KT 10SM CLR 09/07 A3018 RMK AO2 T00890065
Loading
Personal Weather Stations






























Interactive Weather Map
Tropical Storm Tracking
New forecast layout! Learn more

10-Day Weather Forecast

Advertisements
Track Severe Weather on mobile